sensor_id;sensor_type;location;lat;lon;timestamp;temperature;humidity
15203;DHT22;7702;51.046;5.184;2023-04-19T00:01:37;8.90;99.90
15203;DHT22;7702;51.046;5.184;2023-04-19T00:04:04;9.00;99.90
15203;DHT22;7702;51.046;5.184;2023-04-19T00:06:29;9.00;99.90
15203;DHT22;7702;51.046;5.184;2023-04-19T00:08:56;9.00;99.90
15203;DHT22;7702;51.046;5.184;2023-04-19T00:11:23;8.90;99.90
15203;DHT22;7702;51.046;5.184;2023-04-19T00:13:48;8.80;99.90
15203;DHT22;7702;51.046;5.184;2023-04-19T00:16:15;8.80;99.90
15203;DHT22;7702;51.046;5.184;2023-04-19T00:18:40;8.80;99.90
15203;DHT22;7702;51.046;5.184;2023-04-19T00:21:07;8.90;99.90
15203;DHT22;7702;51.046;5.184;2023-04-19T00:23:33;9.00;99.90
15203;DHT22;7702;51.046;5.184;2023-04-19T00:26:02;9.10;99.90
15203;DHT22;7702;51.046;5.184;2023-04-19T00:28:29;9.20;99.90
15203;DHT22;7702;51.046;5.184;2023-04-19T00:30:55;9.20;99.90
15203;DHT22;7702;51.046;5.184;2023-04-19T00:33:21;9.20;99.90
15203;DHT22;7702;51.046;5.184;2023-04-19T00:35:47;9.30;99.90
15203;DHT22;7702;51.046;5.184;2023-04-19T00:38:12;9.30;99.90
15203;DHT22;7702;51.046;5.184;2023-04-19T00:40:38;9.40;99.90
15203;DHT22;7702;51.046;5.184;2023-04-19T00:43:04;9.50;99.90
15203;DHT22;7702;51.046;5.184;2023-04-19T00:45:31;9.50;99.90
15203;DHT22;7702;51.046;5.184;2023-04-19T00:47:57;9.60;99.90
15203;DHT22;7702;51.046;5.184;2023-04-19T00:50:23;9.60;99.90
15203;DHT22;7702;51.046;5.184;2023-04-19T00:52:52;9.70;99.90
15203;DHT22;7702;51.046;5.184;2023-04-19T00:55:18;9.70;99.90
15203;DHT22;7702;51.046;5.184;2023-04-19T00:57:44;9.70;99.90
15203;DHT22;7702;51.046;5.184;2023-04-19T01:00:11;9.60;99.90
15203;DHT22;7702;51.046;5.184;2023-04-19T01:02:37;9.70;99.90
15203;DHT22;7702;51.046;5.184;2023-04-19T01:05:03;9.70;99.90
15203;DHT22;7702;51.046;5.184;2023-04-19T01:07:28;9.70;99.90
15203;DHT22;7702;51.046;5.184;2023-04-19T01:09:55;9.90;99.90
15203;DHT22;7702;51.046;5.184;2023-04-19T01:12:20;9.90;99.90
15203;DHT22;7702;51.046;5.184;2023-04-19T01:14:47;9.90;99.90
15203;DHT22;7702;51.046;5.184;2023-04-19T01:17:13;9.90;99.90
15203;DHT22;7702;51.046;5.184;2023-04-19T01:19:38;9.90;99.90
15203;DHT22;7702;51.046;5.184;2023-04-19T01:22:04;10.00;99.90
15203;DHT22;7702;51.046;5.184;2023-04-19T01:24:31;10.00;99.90
15203;DHT22;7702;51.046;5.184;2023-04-19T01:26:57;10.10;99.90
15203;DHT22;7702;51.046;5.184;2023-04-19T01:29:22;10.10;99.90
15203;DHT22;7702;51.046;5.184;2023-04-19T01:31:49;10.10;99.90
15203;DHT22;7702;51.046;5.184;2023-04-19T01:34:19;10.10;99.90
15203;DHT22;7702;51.046;5.184;2023-04-19T01:36:45;10.10;99.90
15203;DHT22;7702;51.046;5.184;2023-04-19T01:39:10;10.10;99.90
15203;DHT22;7702;51.046;5.184;2023-04-19T01:41:36;10.10;99.90
15203;DHT22;7702;51.046;5.184;2023-04-19T01:44:02;10.20;99.90
15203;DHT22;7702;51.046;5.184;2023-04-19T01:46:28;10.10;99.90
15203;DHT22;7702;51.046;5.184;2023-04-19T01:48:54;10.20;99.90
15203;DHT22;7702;51.046;5.184;2023-04-19T01:51:20;10.20;99.90
15203;DHT22;7702;51.046;5.184;2023-04-19T01:53:46;10.20;99.90
15203;DHT22;7702;51.046;5.184;2023-04-19T01:56:17;10.20;99.90
15203;DHT22;7702;51.046;5.184;2023-04-19T01:58:42;10.30;99.90
15203;DHT22;7702;51.046;5.184;2023-04-19T02:01:08;10.30;99.90
15203;DHT22;7702;51.046;5.184;2023-04-19T02:03:40;10.30;99.90
15203;DHT22;7702;51.046;5.184;2023-04-19T02:06:09;10.30;99.90
15203;DHT22;7702;51.046;5.184;2023-04-19T02:08:35;10.30;99.90
15203;DHT22;7702;51.046;5.184;2023-04-19T02:11:09;10.40;99.90
15203;DHT22;7702;51.046;5.184;2023-04-19T02:13:35;10.40;99.90
15203;DHT22;7702;51.046;5.184;2023-04-19T02:16:01;10.30;99.90
15203;DHT22;7702;51.046;5.184;2023-04-19T02:18:30;10.30;99.90
15203;DHT22;7702;51.046;5.184;2023-04-19T02:20:57;10.30;99.90
15203;DHT22;7702;51.046;5.184;2023-04-19T02:23:23;10.30;99.90
15203;DHT22;7702;51.046;5.184;2023-04-19T02:25:50;10.40;99.90
15203;DHT22;7702;51.046;5.184;2023-04-19T02:28:15;10.30;99.90
15203;DHT22;7702;51.046;5.184;2023-04-19T02:30:42;10.40;99.90
15203;DHT22;7702;51.046;5.184;2023-04-19T02:33:07;10.40;99.90
15203;DHT22;7702;51.046;5.184;2023-04-19T02:35:33;10.50;99.90
15203;DHT22;7702;51.046;5.184;2023-04-19T02:38:03;10.40;99.90
15203;DHT22;7702;51.046;5.184;2023-04-19T02:40:29;10.40;99.90
15203;DHT22;7702;51.046;5.184;2023-04-19T02:42:55;10.50;99.90
15203;DHT22;7702;51.046;5.184;2023-04-19T02:45:20;10.40;99.90
15203;DHT22;7702;51.046;5.184;2023-04-19T02:47:46;10.40;99.90
15203;DHT22;7702;51.046;5.184;2023-04-19T02:50:13;10.50;99.90
15203;DHT22;7702;51.046;5.184;2023-04-19T02:52:40;10.50;99.90
15203;DHT22;7702;51.046;5.184;2023-04-19T02:55:06;10.50;99.90
15203;DHT22;7702;51.046;5.184;2023-04-19T02:57:32;10.40;99.90
15203;DHT22;7702;51.046;5.184;2023-04-19T02:59:57;10.50;99.90
15203;DHT22;7702;51.046;5.184;2023-04-19T03:02:24;10.50;99.90
15203;DHT22;7702;51.046;5.184;2023-04-19T03:04:50;10.60;99.90
15203;DHT22;7702;51.046;5.184;2023-04-19T03:07:17;10.50;99.90
15203;DHT22;7702;51.046;5.184;2023-04-19T03:09:43;10.60;99.90
15203;DHT22;7702;51.046;5.184;2023-04-19T03:12:09;10.60;99.90
15203;DHT22;7702;51.046;5.184;2023-04-19T03:14:35;10.60;99.90
15203;DHT22;7702;51.046;5.184;2023-04-19T03:17:01;10.50;99.90
15203;DHT22;7702;51.046;5.184;2023-04-19T03:19:27;10.50;99.90
15203;DHT22;7702;51.046;5.184;2023-04-19T03:21:53;10.40;99.90
15203;DHT22;7702;51.046;5.184;2023-04-19T03:24:19;10.30;99.90
15203;DHT22;7702;51.046;5.184;2023-04-19T03:26:45;10.20;99.90
15203;DHT22;7702;51.046;5.184;2023-04-19T03:29:11;10.10;99.90
15203;DHT22;7702;51.046;5.184;2023-04-19T03:31:38;10.10;99.90
15203;DHT22;7702;51.046;5.184;2023-04-19T03:34:04;10.10;99.90
15203;DHT22;7702;51.046;5.184;2023-04-19T03:36:29;10.00;99.90
15203;DHT22;7702;51.046;5.184;2023-04-19T03:38:55;10.00;99.90
15203;DHT22;7702;51.046;5.184;2023-04-19T03:41:25;9.90;99.90
15203;DHT22;7702;51.046;5.184;2023-04-19T03:43:51;9.90;99.90
15203;DHT22;7702;51.046;5.184;2023-04-19T03:46:16;9.80;99.90
15203;DHT22;7702;51.046;5.184;2023-04-19T03:48:43;9.80;99.90
15203;DHT22;7702;51.046;5.184;2023-04-19T03:51:08;9.80;99.90
15203;DHT22;7702;51.046;5.184;2023-04-19T03:53:35;9.70;99.90
15203;DHT22;7702;51.046;5.184;2023-04-19T03:56:00;9.70;99.90
15203;DHT22;7702;51.046;5.184;2023-04-19T03:58:26;9.60;99.90
15203;DHT22;7702;51.046;5.184;2023-04-19T04:00:52;9.60;99.90
15203;DHT22;7702;51.046;5.184;2023-04-19T04:03:18;9.50;99.90
15203;DHT22;7702;51.046;5.184;2023-04-19T04:05:44;9.50;99.90
15203;DHT22;7702;51.046;5.184;2023-04-19T04:08:10;9.50;99.90
15203;DHT22;7702;51.046;5.184;2023-04-19T04:10:35;9.50;99.90
15203;DHT22;7702;51.046;5.184;2023-04-19T04:13:02;9.50;99.90
15203;DHT22;7702;51.046;5.184;2023-04-19T04:15:27;9.50;99.90
15203;DHT22;7702;51.046;5.184;2023-04-19T04:17:53;9.50;99.90
15203;DHT22;7702;51.046;5.184;2023-04-19T04:20:19;9.40;99.90
15203;DHT22;7702;51.046;5.184;2023-04-19T04:22:45;9.40;99.90
15203;DHT22;7702;51.046;5.184;2023-04-19T04:25:12;9.50;99.90
15203;DHT22;7702;51.046;5.184;2023-04-19T04:27:40;9.50;99.90
15203;DHT22;7702;51.046;5.184;2023-04-19T04:30:07;9.60;99.90
15203;DHT22;7702;51.046;5.184;2023-04-19T04:32:33;9.70;99.90
15203;DHT22;7702;51.046;5.184;2023-04-19T04:35:03;9.70;99.90
15203;DHT22;7702;51.046;5.184;2023-04-19T04:37:31;9.80;99.90
15203;DHT22;7702;51.046;5.184;2023-04-19T04:40:01;9.80;99.90
15203;DHT22;7702;51.046;5.184;2023-04-19T04:42:30;9.80;99.90
15203;DHT22;7702;51.046;5.184;2023-04-19T04:44:57;9.90;99.90
15203;DHT22;7702;51.046;5.184;2023-04-19T04:47:23;10.00;99.90
15203;DHT22;7702;51.046;5.184;2023-04-19T04:49:49;9.90;99.90
15203;DHT22;7702;51.046;5.184;2023-04-19T04:52:17;10.00;99.90
15203;DHT22;7702;51.046;5.184;2023-04-19T04:54:42;10.00;99.90
15203;DHT22;7702;51.046;5.184;2023-04-19T04:57:08;10.10;99.90
15203;DHT22;7702;51.046;5.184;2023-04-19T04:59:34;10.10;99.90
15203;DHT22;7702;51.046;5.184;2023-04-19T05:02:00;10.10;99.90
15203;DHT22;7702;51.046;5.184;2023-04-19T05:04:25;10.10;99.90
15203;DHT22;7702;51.046;5.184;2023-04-19T05:06:51;10.10;99.90
15203;DHT22;7702;51.046;5.184;2023-04-19T05:09:17;10.10;99.90
15203;DHT22;7702;51.046;5.184;2023-04-19T05:11:42;10.10;99.90
15203;DHT22;7702;51.046;5.184;2023-04-19T05:14:08;10.10;99.90
15203;DHT22;7702;51.046;5.184;2023-04-19T05:16:34;10.10;99.90
15203;DHT22;7702;51.046;5.184;2023-04-19T05:18:59;10.10;99.90
15203;DHT22;7702;51.046;5.184;2023-04-19T05:21:25;10.10;99.90
15203;DHT22;7702;51.046;5.184;2023-04-19T05:23:51;10.20;99.90
15203;DHT22;7702;51.046;5.184;2023-04-19T05:26:18;10.20;99.90
15203;DHT22;7702;51.046;5.184;2023-04-19T05:28:44;10.20;99.90
15203;DHT22;7702;51.046;5.184;2023-04-19T05:31:10;10.30;99.90
15203;DHT22;7702;51.046;5.184;2023-04-19T05:33:36;10.40;99.90
15203;DHT22;7702;51.046;5.184;2023-04-19T05:36:02;10.40;99.90
15203;DHT22;7702;51.046;5.184;2023-04-19T05:38:28;10.40;99.90
15203;DHT22;7702;51.046;5.184;2023-04-19T05:40:54;10.40;99.90
15203;DHT22;7702;51.046;5.184;2023-04-19T05:43:19;10.40;99.90
15203;DHT22;7702;51.046;5.184;2023-04-19T05:45:46;10.50;99.90
15203;DHT22;7702;51.046;5.184;2023-04-19T05:48:11;10.50;99.90
15203;DHT22;7702;51.046;5.184;2023-04-19T05:50:38;10.60;99.90
15203;DHT22;7702;51.046;5.184;2023-04-19T05:53:04;10.70;99.90
15203;DHT22;7702;51.046;5.184;2023-04-19T05:55:29;10.60;99.90
15203;DHT22;7702;51.046;5.184;2023-04-19T05:57:55;10.70;99.90
15203;DHT22;7702;51.046;5.184;2023-04-19T06:00:21;10.80;99.90
15203;DHT22;7702;51.046;5.184;2023-04-19T06:02:47;10.80;99.90
15203;DHT22;7702;51.046;5.184;2023-04-19T06:05:13;10.90;99.90
15203;DHT22;7702;51.046;5.184;2023-04-19T06:07:38;10.90;99.90
15203;DHT22;7702;51.046;5.184;2023-04-19T06:10:05;11.00;99.90
15203;DHT22;7702;51.046;5.184;2023-04-19T06:12:31;11.00;99.90
15203;DHT22;7702;51.046;5.184;2023-04-19T06:14:57;11.10;99.90
15203;DHT22;7702;51.046;5.184;2023-04-19T06:17:22;11.20;99.90
15203;DHT22;7702;51.046;5.184;2023-04-19T06:19:53;11.20;99.90
15203;DHT22;7702;51.046;5.184;2023-04-19T06:22:19;11.20;99.90
15203;DHT22;7702;51.046;5.184;2023-04-19T06:24:48;11.20;99.90
15203;DHT22;7702;51.046;5.184;2023-04-19T06:27:16;11.30;99.90
15203;DHT22;7702;51.046;5.184;2023-04-19T06:29:43;11.40;99.90
15203;DHT22;7702;51.046;5.184;2023-04-19T06:32:09;11.50;99.90
15203;DHT22;7702;51.046;5.184;2023-04-19T06:34:35;11.50;99.90
15203;DHT22;7702;51.046;5.184;2023-04-19T06:37:00;11.60;99.90
15203;DHT22;7702;51.046;5.184;2023-04-19T06:39:26;11.60;99.90
15203;DHT22;7702;51.046;5.184;2023-04-19T06:41:52;11.60;99.90
15203;DHT22;7702;51.046;5.184;2023-04-19T06:44:18;11.70;99.90
15203;DHT22;7702;51.046;5.184;2023-04-19T06:46:44;11.80;99.90
15203;DHT22;7702;51.046;5.184;2023-04-19T06:49:10;11.90;99.90
15203;DHT22;7702;51.046;5.184;2023-04-19T06:51:37;12.10;99.90
15203;DHT22;7702;51.046;5.184;2023-04-19T06:54:03;12.40;99.90
15203;DHT22;7702;51.046;5.184;2023-04-19T06:56:42;12.60;99.90
15203;DHT22;7702;51.046;5.184;2023-04-19T06:59:10;12.80;99.90
15203;DHT22;7702;51.046;5.184;2023-04-19T07:01:37;13.00;99.90
15203;DHT22;7702;51.046;5.184;2023-04-19T07:04:03;13.00;99.90
15203;DHT22;7702;51.046;5.184;2023-04-19T07:06:29;13.10;99.90
15203;DHT22;7702;51.046;5.184;2023-04-19T07:08:54;13.20;99.90
15203;DHT22;7702;51.046;5.184;2023-04-19T07:11:20;13.10;99.90
15203;DHT22;7702;51.046;5.184;2023-04-19T07:13:46;13.00;99.90
15203;DHT22;7702;51.046;5.184;2023-04-19T07:16:11;12.90;99.90
15203;DHT22;7702;51.046;5.184;2023-04-19T07:18:39;13.00;99.90
15203;DHT22;7702;51.046;5.184;2023-04-19T07:21:05;13.20;99.90
15203;DHT22;7702;51.046;5.184;2023-04-19T07:23:30;13.30;99.90
15203;DHT22;7702;51.046;5.184;2023-04-19T07:25:56;13.40;99.90
15203;DHT22;7702;51.046;5.184;2023-04-19T07:28:22;13.60;99.90
15203;DHT22;7702;51.046;5.184;2023-04-19T07:30:48;13.60;99.90
15203;DHT22;7702;51.046;5.184;2023-04-19T07:33:14;13.60;99.90
15203;DHT22;7702;51.046;5.184;2023-04-19T07:35:40;13.70;99.90
15203;DHT22;7702;51.046;5.184;2023-04-19T07:38:05;13.60;99.90
15203;DHT22;7702;51.046;5.184;2023-04-19T07:40:31;13.70;99.90
15203;DHT22;7702;51.046;5.184;2023-04-19T07:42:57;13.90;99.90
15203;DHT22;7702;51.046;5.184;2023-04-19T07:45:23;13.90;99.90
15203;DHT22;7702;51.046;5.184;2023-04-19T07:47:48;14.10;99.90
15203;DHT22;7702;51.046;5.184;2023-04-19T07:50:15;14.10;99.90
15203;DHT22;7702;51.046;5.184;2023-04-19T07:52:41;14.30;99.90
15203;DHT22;7702;51.046;5.184;2023-04-19T07:55:07;14.30;99.90
15203;DHT22;7702;51.046;5.184;2023-04-19T07:57:34;14.30;99.90
15203;DHT22;7702;51.046;5.184;2023-04-19T08:00:00;14.30;99.90
15203;DHT22;7702;51.046;5.184;2023-04-19T08:02:26;14.30;99.90
15203;DHT22;7702;51.046;5.184;2023-04-19T08:04:52;14.30;99.90
15203;DHT22;7702;51.046;5.184;2023-04-19T08:07:18;14.40;99.90
15203;DHT22;7702;51.046;5.184;2023-04-19T08:09:44;14.30;99.90
15203;DHT22;7702;51.046;5.184;2023-04-19T08:12:10;14.40;99.90
15203;DHT22;7702;51.046;5.184;2023-04-19T08:14:36;14.70;99.90
15203;DHT22;7702;51.046;5.184;2023-04-19T08:17:04;14.90;99.90
15203;DHT22;7702;51.046;5.184;2023-04-19T08:19:29;15.00;99.90
15203;DHT22;7702;51.046;5.184;2023-04-19T08:21:55;15.10;99.90
15203;DHT22;7702;51.046;5.184;2023-04-19T08:24:21;15.20;99.90
15203;DHT22;7702;51.046;5.184;2023-04-19T08:26:47;15.40;99.90
15203;DHT22;7702;51.046;5.184;2023-04-19T08:29:19;15.50;99.90
15203;DHT22;7702;51.046;5.184;2023-04-19T08:31:45;15.70;99.90
15203;DHT22;7702;51.046;5.184;2023-04-19T08:34:11;16.00;99.90
15203;DHT22;7702;51.046;5.184;2023-04-19T08:36:36;15.80;99.90
15203;DHT22;7702;51.046;5.184;2023-04-19T08:39:02;16.10;99.90
15203;DHT22;7702;51.046;5.184;2023-04-19T08:41:29;16.30;99.90
15203;DHT22;7702;51.046;5.184;2023-04-19T08:43:56;16.20;99.90
15203;DHT22;7702;51.046;5.184;2023-04-19T08:46:23;16.00;99.90
15203;DHT22;7702;51.046;5.184;2023-04-19T08:48:49;16.10;99.90
15203;DHT22;7702;51.046;5.184;2023-04-19T08:51:16;16.10;99.90
15203;DHT22;7702;51.046;5.184;2023-04-19T08:53:43;16.00;99.90
15203;DHT22;7702;51.046;5.184;2023-04-19T08:56:09;16.10;99.90
15203;DHT22;7702;51.046;5.184;2023-04-19T08:58:35;16.40;99.90
15203;DHT22;7702;51.046;5.184;2023-04-19T09:01:03;16.50;99.90
15203;DHT22;7702;51.046;5.184;2023-04-19T09:03:30;16.40;99.90
15203;DHT22;7702;51.046;5.184;2023-04-19T09:06:00;16.20;99.90
15203;DHT22;7702;51.046;5.184;2023-04-19T09:08:28;16.30;99.90
15203;DHT22;7702;51.046;5.184;2023-04-19T09:10:56;16.60;99.90
15203;DHT22;7702;51.046;5.184;2023-04-19T09:13:22;16.70;99.90
15203;DHT22;7702;51.046;5.184;2023-04-19T09:15:48;17.00;99.90
15203;DHT22;7702;51.046;5.184;2023-04-19T09:18:14;17.20;99.90
15203;DHT22;7702;51.046;5.184;2023-04-19T09:20:42;17.30;99.90
15203;DHT22;7702;51.046;5.184;2023-04-19T09:23:18;17.40;99.90
15203;DHT22;7702;51.046;5.184;2023-04-19T09:28:23;17.30;99.90
15203;DHT22;7702;51.046;5.184;2023-04-19T09:30:49;17.40;99.90
15203;DHT22;7702;51.046;5.184;2023-04-19T09:35:57;17.70;99.90
15203;DHT22;7702;51.046;5.184;2023-04-19T09:38:23;18.00;99.90
15203;DHT22;7702;51.046;5.184;2023-04-19T09:40:49;18.10;99.90
15203;DHT22;7702;51.046;5.184;2023-04-19T09:43:23;17.60;99.90
15203;DHT22;7702;51.046;5.184;2023-04-19T09:45:51;17.80;99.90
15203;DHT22;7702;51.046;5.184;2023-04-19T09:48:17;17.80;99.90
15203;DHT22;7702;51.046;5.184;2023-04-19T09:50:53;17.70;99.90
15203;DHT22;7702;51.046;5.184;2023-04-19T09:53:19;17.90;99.90
15203;DHT22;7702;51.046;5.184;2023-04-19T09:55:45;17.80;99.90
15203;DHT22;7702;51.046;5.184;2023-04-19T09:58:15;18.00;99.90
15203;DHT22;7702;51.046;5.184;2023-04-19T10:00:43;17.90;99.90
15203;DHT22;7702;51.046;5.184;2023-04-19T10:03:09;18.20;99.90
15203;DHT22;7702;51.046;5.184;2023-04-19T10:05:39;18.20;99.90
15203;DHT22;7702;51.046;5.184;2023-04-19T10:08:10;18.20;99.90
15203;DHT22;7702;51.046;5.184;2023-04-19T10:10:36;18.70;99.90
15203;DHT22;7702;51.046;5.184;2023-04-19T10:13:07;19.00;99.90
15203;DHT22;7702;51.046;5.184;2023-04-19T10:15:35;19.00;99.90
15203;DHT22;7702;51.046;5.184;2023-04-19T10:18:03;19.00;99.90
15203;DHT22;7702;51.046;5.184;2023-04-19T10:20:57;18.90;99.90
15203;DHT22;7702;51.046;5.184;2023-04-19T10:23:24;18.60;99.90
15203;DHT22;7702;51.046;5.184;2023-04-19T10:25:56;18.70;99.90
15203;DHT22;7702;51.046;5.184;2023-04-19T10:28:27;18.80;99.90
15203;DHT22;7702;51.046;5.184;2023-04-19T10:31:01;19.10;99.90
15203;DHT22;7702;51.046;5.184;2023-04-19T10:33:35;19.00;99.90
15203;DHT22;7702;51.046;5.184;2023-04-19T10:36:01;19.20;99.90
15203;DHT22;7702;51.046;5.184;2023-04-19T10:38:43;19.30;99.90
15203;DHT22;7702;51.046;5.184;2023-04-19T10:41:12;19.30;99.90
15203;DHT22;7702;51.046;5.184;2023-04-19T10:44:10;18.90;99.90
15203;DHT22;7702;51.046;5.184;2023-04-19T10:46:38;18.80;99.90
15203;DHT22;7702;51.046;5.184;2023-04-19T10:49:05;19.00;99.90
15203;DHT22;7702;51.046;5.184;2023-04-19T10:51:34;18.90;99.90
15203;DHT22;7702;51.046;5.184;2023-04-19T10:54:03;19.10;99.90
15203;DHT22;7702;51.046;5.184;2023-04-19T11:04:02;18.70;94.90
15203;DHT22;7702;51.046;5.184;2023-04-19T11:06:28;18.70;94.90
15203;DHT22;7702;51.046;5.184;2023-04-19T11:08:54;18.90;94.60
15203;DHT22;7702;51.046;5.184;2023-04-19T11:11:20;18.80;92.70
15203;DHT22;7702;51.046;5.184;2023-04-19T11:13:49;18.60;93.30
15203;DHT22;7702;51.046;5.184;2023-04-19T11:16:15;18.50;91.50
15203;DHT22;7702;51.046;5.184;2023-04-19T11:18:41;18.60;90.90
15203;DHT22;7702;51.046;5.184;2023-04-19T11:21:06;18.40;88.90
15203;DHT22;7702;51.046;5.184;2023-04-19T11:23:36;18.30;88.60
15203;DHT22;7702;51.046;5.184;2023-04-19T11:26:02;18.50;88.60
15203;DHT22;7702;51.046;5.184;2023-04-19T11:28:28;18.50;90.60
15203;DHT22;7702;51.046;5.184;2023-04-19T11:30:55;18.70;90.50
15203;DHT22;7702;51.046;5.184;2023-04-19T11:33:22;18.70;90.50
15203;DHT22;7702;51.046;5.184;2023-04-19T11:35:50;19.00;87.00
15203;DHT22;7702;51.046;5.184;2023-04-19T11:38:15;19.30;85.60
15203;DHT22;7702;51.046;5.184;2023-04-19T11:40:41;19.00;77.70
15203;DHT22;7702;51.046;5.184;2023-04-19T11:43:07;19.10;81.20
15203;DHT22;7702;51.046;5.184;2023-04-19T11:45:35;19.30;80.90
15203;DHT22;7702;51.046;5.184;2023-04-19T11:48:03;19.30;75.00
15203;DHT22;7702;51.046;5.184;2023-04-19T11:50:38;19.30;74.50
15203;DHT22;7702;51.046;5.184;2023-04-19T11:53:22;19.20;71.00
15203;DHT22;7702;51.046;5.184;2023-04-19T11:55:50;19.10;70.90
15203;DHT22;7702;51.046;5.184;2023-04-19T11:58:24;19.00;70.80
15203;DHT22;7702;51.046;5.184;2023-04-19T12:00:50;19.20;70.60
15203;DHT22;7702;51.046;5.184;2023-04-19T12:03:20;19.40;71.40
15203;DHT22;7702;51.046;5.184;2023-04-19T12:05:57;19.40;71.90
15203;DHT22;7702;51.046;5.184;2023-04-19T12:08:31;19.20;70.10
15203;DHT22;7702;51.046;5.184;2023-04-19T12:10:58;19.20;71.50
15203;DHT22;7702;51.046;5.184;2023-04-19T12:13:24;19.50;71.20
15203;DHT22;7702;51.046;5.184;2023-04-19T12:15:50;19.20;68.80
15203;DHT22;7702;51.046;5.184;2023-04-19T12:18:17;19.00;69.60
15203;DHT22;7702;51.046;5.184;2023-04-19T12:20:45;18.90;70.30
15203;DHT22;7702;51.046;5.184;2023-04-19T12:23:11;19.00;68.50
15203;DHT22;7702;51.046;5.184;2023-04-19T12:25:39;19.50;66.20
15203;DHT22;7702;51.046;5.184;2023-04-19T12:28:05;19.40;63.60
15203;DHT22;7702;51.046;5.184;2023-04-19T12:30:32;19.20;61.20
15203;DHT22;7702;51.046;5.184;2023-04-19T12:32:58;19.00;62.40
15203;DHT22;7702;51.046;5.184;2023-04-19T12:35:25;19.20;62.10
15203;DHT22;7702;51.046;5.184;2023-04-19T12:37:55;19.10;61.40
15203;DHT22;7702;51.046;5.184;2023-04-19T12:40:22;19.10;61.90
15203;DHT22;7702;51.046;5.184;2023-04-19T12:42:48;19.00;59.40
15203;DHT22;7702;51.046;5.184;2023-04-19T12:45:14;19.00;58.90
15203;DHT22;7702;51.046;5.184;2023-04-19T12:47:43;18.60;58.90
15203;DHT22;7702;51.046;5.184;2023-04-19T12:50:09;18.70;62.10
15203;DHT22;7702;51.046;5.184;2023-04-19T12:52:35;18.80;58.40
15203;DHT22;7702;51.046;5.184;2023-04-19T12:55:01;18.90;60.50
15203;DHT22;7702;51.046;5.184;2023-04-19T12:57:27;19.30;60.20
15203;DHT22;7702;51.046;5.184;2023-04-19T12:59:53;19.20;59.70
15203;DHT22;7702;51.046;5.184;2023-04-19T13:02:18;18.80;58.20
15203;DHT22;7702;51.046;5.184;2023-04-19T13:04:44;19.00;58.40
15203;DHT22;7702;51.046;5.184;2023-04-19T13:07:10;18.70;57.50
15203;DHT22;7702;51.046;5.184;2023-04-19T13:09:36;18.90;58.80
15203;DHT22;7702;51.046;5.184;2023-04-19T13:12:04;19.00;56.60
15203;DHT22;7702;51.046;5.184;2023-04-19T13:14:29;19.10;56.10
15203;DHT22;7702;51.046;5.184;2023-04-19T13:16:55;19.10;56.80
15203;DHT22;7702;51.046;5.184;2023-04-19T13:19:21;19.30;55.80
15203;DHT22;7702;51.046;5.184;2023-04-19T13:21:46;19.10;56.90
15203;DHT22;7702;51.046;5.184;2023-04-19T13:24:12;19.00;58.60
15203;DHT22;7702;51.046;5.184;2023-04-19T13:26:38;19.00;57.70
15203;DHT22;7702;51.046;5.184;2023-04-19T13:29:04;19.40;59.30
15203;DHT22;7702;51.046;5.184;2023-04-19T13:31:30;19.60;56.50
15203;DHT22;7702;51.046;5.184;2023-04-19T13:33:56;19.50;55.40
15203;DHT22;7702;51.046;5.184;2023-04-19T13:36:22;19.30;54.60
15203;DHT22;7702;51.046;5.184;2023-04-19T13:38:48;19.30;54.70
15203;DHT22;7702;51.046;5.184;2023-04-19T13:41:14;19.40;55.60
15203;DHT22;7702;51.046;5.184;2023-04-19T13:43:39;19.50;55.80
15203;DHT22;7702;51.046;5.184;2023-04-19T13:46:05;19.30;55.20
15203;DHT22;7702;51.046;5.184;2023-04-19T13:48:31;19.10;55.60
15203;DHT22;7702;51.046;5.184;2023-04-19T13:50:58;19.00;57.10
15203;DHT22;7702;51.046;5.184;2023-04-19T13:53:25;19.40;56.30
15203;DHT22;7702;51.046;5.184;2023-04-19T13:55:52;19.80;56.40
15203;DHT22;7702;51.046;5.184;2023-04-19T13:58:18;20.30;55.20
15203;DHT22;7702;51.046;5.184;2023-04-19T14:00:44;20.00;52.30
15203;DHT22;7702;51.046;5.184;2023-04-19T14:03:10;19.80;53.30
15203;DHT22;7702;51.046;5.184;2023-04-19T14:05:36;19.50;53.40
15203;DHT22;7702;51.046;5.184;2023-04-19T14:08:01;19.50;53.60
15203;DHT22;7702;51.046;5.184;2023-04-19T14:10:27;20.10;53.50
15203;DHT22;7702;51.046;5.184;2023-04-19T14:12:53;20.10;52.60
15203;DHT22;7702;51.046;5.184;2023-04-19T14:15:19;20.10;52.40
15203;DHT22;7702;51.046;5.184;2023-04-19T14:17:45;19.70;51.50
15203;DHT22;7702;51.046;5.184;2023-04-19T14:20:11;19.70;51.60
15203;DHT22;7702;51.046;5.184;2023-04-19T14:22:37;19.10;50.10
15203;DHT22;7702;51.046;5.184;2023-04-19T14:25:04;19.20;51.20
15203;DHT22;7702;51.046;5.184;2023-04-19T14:27:30;19.40;51.50
15203;DHT22;7702;51.046;5.184;2023-04-19T14:29:56;19.40;51.80
15203;DHT22;7702;51.046;5.184;2023-04-19T14:32:22;19.80;52.30
15203;DHT22;7702;51.046;5.184;2023-04-19T14:34:48;20.10;51.20
15203;DHT22;7702;51.046;5.184;2023-04-19T14:37:13;19.70;50.80
15203;DHT22;7702;51.046;5.184;2023-04-19T14:39:39;19.90;54.00
15203;DHT22;7702;51.046;5.184;2023-04-19T14:42:05;20.10;53.00
15203;DHT22;7702;51.046;5.184;2023-04-19T14:44:30;20.00;52.50
15203;DHT22;7702;51.046;5.184;2023-04-19T14:46:56;20.20;52.00
15203;DHT22;7702;51.046;5.184;2023-04-19T14:49:22;20.40;52.00
15203;DHT22;7702;51.046;5.184;2023-04-19T14:51:50;19.90;52.20
15203;DHT22;7702;51.046;5.184;2023-04-19T14:54:16;19.90;52.40
15203;DHT22;7702;51.046;5.184;2023-04-19T14:56:42;19.90;52.70
15203;DHT22;7702;51.046;5.184;2023-04-19T14:59:08;19.90;53.30
15203;DHT22;7702;51.046;5.184;2023-04-19T15:01:33;20.30;53.20
15203;DHT22;7702;51.046;5.184;2023-04-19T15:03:59;20.30;53.00
15203;DHT22;7702;51.046;5.184;2023-04-19T15:06:25;20.50;52.20
15203;DHT22;7702;51.046;5.184;2023-04-19T15:08:51;20.60;52.50
15203;DHT22;7702;51.046;5.184;2023-04-19T15:11:17;20.70;53.50
15203;DHT22;7702;51.046;5.184;2023-04-19T15:13:42;20.90;51.30
15203;DHT22;7702;51.046;5.184;2023-04-19T15:16:08;20.40;51.40
15203;DHT22;7702;51.046;5.184;2023-04-19T15:18:34;20.40;51.90
15203;DHT22;7702;51.046;5.184;2023-04-19T15:21:03;20.20;52.30
15203;DHT22;7702;51.046;5.184;2023-04-19T15:23:29;20.60;53.70
15203;DHT22;7702;51.046;5.184;2023-04-19T15:25:55;21.50;52.80
15203;DHT22;7702;51.046;5.184;2023-04-19T15:28:22;20.80;52.80
15203;DHT22;7702;51.046;5.184;2023-04-19T15:30:59;20.50;53.20
15203;DHT22;7702;51.046;5.184;2023-04-19T15:33:26;20.90;53.00
15203;DHT22;7702;51.046;5.184;2023-04-19T15:35:53;21.10;53.00
15203;DHT22;7702;51.046;5.184;2023-04-19T15:38:24;21.00;53.10
15203;DHT22;7702;51.046;5.184;2023-04-19T15:40:50;21.50;52.10
15203;DHT22;7702;51.046;5.184;2023-04-19T15:43:16;20.80;52.20
15203;DHT22;7702;51.046;5.184;2023-04-19T15:45:42;21.00;52.30
15203;DHT22;7702;51.046;5.184;2023-04-19T15:48:07;20.90;53.70
15203;DHT22;7702;51.046;5.184;2023-04-19T15:50:37;21.50;53.40
15203;DHT22;7702;51.046;5.184;2023-04-19T15:53:04;21.70;52.80
15203;DHT22;7702;51.046;5.184;2023-04-19T15:55:30;21.10;52.70
15203;DHT22;7702;51.046;5.184;2023-04-19T15:57:56;21.10;52.90